sensor_id;sensor_type;location;lat;lon;timestamp;P1;durP1;ratioP1;P2;durP2;ratioP2
76351;SDS011;65179;47.786;19.138;2023-04-09T00:01:55;14.05;;;8.63;;
76351;SDS011;65179;47.786;19.138;2023-04-09T00:04:20;15.83;;;9.10;;
76351;SDS011;65179;47.786;19.138;2023-04-09T00:06:47;15.55;;;9.15;;
76351;SDS011;65179;47.786;19.138;2023-04-09T00:09:13;15.27;;;9.23;;
76351;SDS011;65179;47.786;19.138;2023-04-09T00:11:38;15.40;;;8.53;;
76351;SDS011;65179;47.786;19.138;2023-04-09T00:14:03;15.70;;;9.60;;
76351;SDS011;65179;47.786;19.138;2023-04-09T00:16:29;16.87;;;8.70;;
76351;SDS011;65179;47.786;19.138;2023-04-09T00:18:54;15.27;;;9.00;;
76351;SDS011;65179;47.786;19.138;2023-04-09T00:21:20;14.70;;;9.10;;
76351;SDS011;65179;47.786;19.138;2023-04-09T00:23:45;16.05;;;8.75;;
76351;SDS011;65179;47.786;19.138;2023-04-09T00:26:11;15.80;;;9.33;;
76351;SDS011;65179;47.786;19.138;2023-04-09T00:28:36;15.30;;;9.03;;
76351;SDS011;65179;47.786;19.138;2023-04-09T00:31:02;16.07;;;9.13;;
76351;SDS011;65179;47.786;19.138;2023-04-09T00:33:27;15.45;;;9.38;;
76351;SDS011;65179;47.786;19.138;2023-04-09T00:35:53;15.20;;;8.87;;
76351;SDS011;65179;47.786;19.138;2023-04-09T00:38:18;16.63;;;10.07;;
76351;SDS011;65179;47.786;19.138;2023-04-09T00:40:47;18.33;;;10.47;;
76351;SDS011;65179;47.786;19.138;2023-04-09T00:43:13;17.00;;;9.23;;
76351;SDS011;65179;47.786;19.138;2023-04-09T00:45:39;15.53;;;9.33;;
76351;SDS011;65179;47.786;19.138;2023-04-09T00:48:04;15.68;;;8.52;;
76351;SDS011;65179;47.786;19.138;2023-04-09T00:50:31;17.20;;;9.67;;
76351;SDS011;65179;47.786;19.138;2023-04-09T00:52:56;16.62;;;9.65;;
76351;SDS011;65179;47.786;19.138;2023-04-09T00:55:21;16.60;;;9.77;;
76351;SDS011;65179;47.786;19.138;2023-04-09T00:57:47;17.90;;;10.02;;
76351;SDS011;65179;47.786;19.138;2023-04-09T01:00:13;17.12;;;9.90;;
76351;SDS011;65179;47.786;19.138;2023-04-09T01:02:38;19.27;;;9.90;;
76351;SDS011;65179;47.786;19.138;2023-04-09T01:05:05;18.85;;;10.93;;
76351;SDS011;65179;47.786;19.138;2023-04-09T01:10:11;19.80;;;10.32;;
76351;SDS011;65179;47.786;19.138;2023-04-09T01:12:58;17.37;;;9.88;;
76351;SDS011;65179;47.786;19.138;2023-04-09T01:15:32;15.65;;;9.43;;
76351;SDS011;65179;47.786;19.138;2023-04-09T01:21:12;15.95;;;9.88;;
76351;SDS011;65179;47.786;19.138;2023-04-09T01:29:30;15.70;;;9.63;;
76351;SDS011;65179;47.786;19.138;2023-04-09T01:31:57;17.27;;;9.82;;
76351;SDS011;65179;47.786;19.138;2023-04-09T01:34:25;17.10;;;9.65;;
76351;SDS011;65179;47.786;19.138;2023-04-09T01:36:53;18.35;;;10.73;;
76351;SDS011;65179;47.786;19.138;2023-04-09T01:39:21;18.75;;;10.40;;
76351;SDS011;65179;47.786;19.138;2023-04-09T01:41:47;18.52;;;10.40;;
76351;SDS011;65179;47.786;19.138;2023-04-09T01:44:13;17.65;;;10.63;;
76351;SDS011;65179;47.786;19.138;2023-04-09T01:46:40;18.20;;;10.32;;
76351;SDS011;65179;47.786;19.138;2023-04-09T01:49:06;16.27;;;10.10;;
76351;SDS011;65179;47.786;19.138;2023-04-09T01:51:33;17.37;;;10.02;;
76351;SDS011;65179;47.786;19.138;2023-04-09T01:54:00;20.02;;;10.00;;
76351;SDS011;65179;47.786;19.138;2023-04-09T01:56:25;16.67;;;9.97;;
76351;SDS011;65179;47.786;19.138;2023-04-09T01:58:51;19.07;;;9.77;;
76351;SDS011;65179;47.786;19.138;2023-04-09T02:01:23;18.20;;;10.15;;
76351;SDS011;65179;47.786;19.138;2023-04-09T02:03:57;13.93;;;8.70;;
76351;SDS011;65179;47.786;19.138;2023-04-09T02:06:47;17.10;;;9.00;;
76351;SDS011;65179;47.786;19.138;2023-04-09T02:09:32;15.80;;;9.20;;
76351;SDS011;65179;47.786;19.138;2023-04-09T02:12:02;16.83;;;9.18;;
76351;SDS011;65179;47.786;19.138;2023-04-09T02:14:30;16.98;;;9.45;;
76351;SDS011;65179;47.786;19.138;2023-04-09T02:16:57;15.10;;;9.20;;
76351;SDS011;65179;47.786;19.138;2023-04-09T02:19:23;15.67;;;8.87;;
76351;SDS011;65179;47.786;19.138;2023-04-09T02:21:49;17.23;;;9.30;;
76351;SDS011;65179;47.786;19.138;2023-04-09T02:24:14;15.77;;;9.97;;
76351;SDS011;65179;47.786;19.138;2023-04-09T02:26:40;16.60;;;9.77;;
76351;SDS011;65179;47.786;19.138;2023-04-09T02:29:05;16.43;;;9.70;;
76351;SDS011;65179;47.786;19.138;2023-04-09T02:31:31;15.30;;;9.18;;
76351;SDS011;65179;47.786;19.138;2023-04-09T02:33:56;17.93;;;9.93;;
76351;SDS011;65179;47.786;19.138;2023-04-09T02:36:21;18.23;;;9.83;;
76351;SDS011;65179;47.786;19.138;2023-04-09T02:38:47;18.00;;;9.50;;
76351;SDS011;65179;47.786;19.138;2023-04-09T02:41:12;18.10;;;10.03;;
76351;SDS011;65179;47.786;19.138;2023-04-09T02:43:38;15.85;;;9.18;;
76351;SDS011;65179;47.786;19.138;2023-04-09T02:46:03;15.07;;;9.53;;
76351;SDS011;65179;47.786;19.138;2023-04-09T02:48:29;16.07;;;10.13;;
76351;SDS011;65179;47.786;19.138;2023-04-09T02:50:54;18.03;;;9.80;;
76351;SDS011;65179;47.786;19.138;2023-04-09T02:53:20;16.42;;;9.82;;
76351;SDS011;65179;47.786;19.138;2023-04-09T02:55:46;16.80;;;9.57;;
76351;SDS011;65179;47.786;19.138;2023-04-09T02:58:12;15.80;;;9.32;;
76351;SDS011;65179;47.786;19.138;2023-04-09T03:00:37;15.07;;;8.83;;
76351;SDS011;65179;47.786;19.138;2023-04-09T03:03:02;15.87;;;9.43;;
76351;SDS011;65179;47.786;19.138;2023-04-09T03:05:28;16.27;;;9.75;;
76351;SDS011;65179;47.786;19.138;2023-04-09T03:07:54;15.30;;;8.68;;
76351;SDS011;65179;47.786;19.138;2023-04-09T03:10:20;15.93;;;9.02;;
76351;SDS011;65179;47.786;19.138;2023-04-09T03:12:45;16.37;;;9.47;;
76351;SDS011;65179;47.786;19.138;2023-04-09T03:15:12;17.42;;;8.98;;
76351;SDS011;65179;47.786;19.138;2023-04-09T03:17:37;16.47;;;9.13;;
76351;SDS011;65179;47.786;19.138;2023-04-09T03:20:03;15.60;;;9.18;;
76351;SDS011;65179;47.786;19.138;2023-04-09T03:22:34;16.50;;;9.32;;
76351;SDS011;65179;47.786;19.138;2023-04-09T03:25:03;14.00;;;9.13;;
76351;SDS011;65179;47.786;19.138;2023-04-09T03:27:31;17.58;;;10.38;;
76351;SDS011;65179;47.786;19.138;2023-04-09T03:29:56;15.82;;;9.70;;
76351;SDS011;65179;47.786;19.138;2023-04-09T03:32:21;17.27;;;10.20;;
76351;SDS011;65179;47.786;19.138;2023-04-09T03:34:47;19.50;;;11.07;;
76351;SDS011;65179;47.786;19.138;2023-04-09T03:37:12;20.53;;;11.37;;
76351;SDS011;65179;47.786;19.138;2023-04-09T03:39:38;16.98;;;9.70;;
76351;SDS011;65179;47.786;19.138;2023-04-09T03:42:03;18.33;;;10.20;;
76351;SDS011;65179;47.786;19.138;2023-04-09T03:44:29;18.97;;;10.60;;
76351;SDS011;65179;47.786;19.138;2023-04-09T03:46:54;17.87;;;10.43;;
76351;SDS011;65179;47.786;19.138;2023-04-09T03:49:20;18.60;;;10.48;;
76351;SDS011;65179;47.786;19.138;2023-04-09T03:51:45;17.80;;;10.47;;
76351;SDS011;65179;47.786;19.138;2023-04-09T03:54:11;15.63;;;9.63;;
76351;SDS011;65179;47.786;19.138;2023-04-09T03:56:36;19.05;;;10.70;;
76351;SDS011;65179;47.786;19.138;2023-04-09T03:59:02;17.10;;;10.20;;
76351;SDS011;65179;47.786;19.138;2023-04-09T04:01:27;16.93;;;10.13;;
76351;SDS011;65179;47.786;19.138;2023-04-09T04:03:52;16.00;;;9.40;;
76351;SDS011;65179;47.786;19.138;2023-04-09T04:06:18;16.87;;;9.67;;
76351;SDS011;65179;47.786;19.138;2023-04-09T04:08:43;15.25;;;9.82;;
76351;SDS011;65179;47.786;19.138;2023-04-09T04:11:09;15.90;;;10.90;;
76351;SDS011;65179;47.786;19.138;2023-04-09T04:13:34;17.23;;;10.30;;
76351;SDS011;65179;47.786;19.138;2023-04-09T04:15:59;16.00;;;9.30;;
76351;SDS011;65179;47.786;19.138;2023-04-09T04:18:25;17.62;;;10.40;;
76351;SDS011;65179;47.786;19.138;2023-04-09T04:20:50;16.97;;;10.33;;
76351;SDS011;65179;47.786;19.138;2023-04-09T04:23:16;15.70;;;9.40;;
76351;SDS011;65179;47.786;19.138;2023-04-09T04:25:41;15.77;;;9.80;;
76351;SDS011;65179;47.786;19.138;2023-04-09T04:28:07;17.75;;;10.70;;
76351;SDS011;65179;47.786;19.138;2023-04-09T04:30:33;15.95;;;9.50;;
76351;SDS011;65179;47.786;19.138;2023-04-09T04:32:58;15.10;;;9.20;;
76351;SDS011;65179;47.786;19.138;2023-04-09T04:35:23;16.77;;;9.63;;
76351;SDS011;65179;47.786;19.138;2023-04-09T04:37:49;17.30;;;9.20;;
76351;SDS011;65179;47.786;19.138;2023-04-09T04:40:15;18.00;;;10.53;;
76351;SDS011;65179;47.786;19.138;2023-04-09T04:42:41;14.68;;;8.23;;
76351;SDS011;65179;47.786;19.138;2023-04-09T04:45:06;17.60;;;10.20;;
76351;SDS011;65179;47.786;19.138;2023-04-09T04:47:32;17.83;;;10.15;;
76351;SDS011;65179;47.786;19.138;2023-04-09T04:49:58;15.87;;;9.53;;
76351;SDS011;65179;47.786;19.138;2023-04-09T04:52:23;18.08;;;10.55;;
76351;SDS011;65179;47.786;19.138;2023-04-09T04:54:49;18.63;;;10.17;;
76351;SDS011;65179;47.786;19.138;2023-04-09T04:57:14;17.70;;;10.20;;
76351;SDS011;65179;47.786;19.138;2023-04-09T04:59:40;17.70;;;11.05;;
76351;SDS011;65179;47.786;19.138;2023-04-09T05:02:06;20.48;;;11.77;;
76351;SDS011;65179;47.786;19.138;2023-04-09T05:04:32;21.12;;;12.65;;
76351;SDS011;65179;47.786;19.138;2023-04-09T05:06:57;21.87;;;12.57;;
76351;SDS011;65179;47.786;19.138;2023-04-09T05:09:23;19.62;;;11.60;;
76351;SDS011;65179;47.786;19.138;2023-04-09T05:11:48;20.67;;;11.80;;
76351;SDS011;65179;47.786;19.138;2023-04-09T05:14:14;18.77;;;11.03;;
76351;SDS011;65179;47.786;19.138;2023-04-09T05:16:40;17.55;;;10.88;;
76351;SDS011;65179;47.786;19.138;2023-04-09T05:19:05;17.83;;;9.63;;
76351;SDS011;65179;47.786;19.138;2023-04-09T05:21:30;29.50;;;14.37;;
76351;SDS011;65179;47.786;19.138;2023-04-09T05:23:56;35.70;;;16.63;;
76351;SDS011;65179;47.786;19.138;2023-04-09T05:26:22;28.77;;;13.52;;
76351;SDS011;65179;47.786;19.138;2023-04-09T05:28:47;21.43;;;11.30;;
76351;SDS011;65179;47.786;19.138;2023-04-09T05:31:13;20.12;;;11.23;;
76351;SDS011;65179;47.786;19.138;2023-04-09T05:33:39;20.00;;;11.30;;
76351;SDS011;65179;47.786;19.138;2023-04-09T05:36:05;18.20;;;10.60;;
76351;SDS011;65179;47.786;19.138;2023-04-09T05:38:31;19.98;;;11.15;;
76351;SDS011;65179;47.786;19.138;2023-04-09T05:40:57;19.40;;;11.30;;
76351;SDS011;65179;47.786;19.138;2023-04-09T05:43:22;18.20;;;10.90;;
76351;SDS011;65179;47.786;19.138;2023-04-09T05:45:48;19.77;;;11.37;;
76351;SDS011;65179;47.786;19.138;2023-04-09T05:48:13;16.95;;;10.00;;
76351;SDS011;65179;47.786;19.138;2023-04-09T05:50:39;17.63;;;10.43;;
76351;SDS011;65179;47.786;19.138;2023-04-09T05:53:04;19.67;;;11.33;;
76351;SDS011;65179;47.786;19.138;2023-04-09T05:55:30;18.50;;;11.17;;
76351;SDS011;65179;47.786;19.138;2023-04-09T05:57:56;16.77;;;10.43;;
76351;SDS011;65179;47.786;19.138;2023-04-09T06:00:22;21.90;;;11.80;;
76351;SDS011;65179;47.786;19.138;2023-04-09T06:02:47;18.75;;;11.43;;
76351;SDS011;65179;47.786;19.138;2023-04-09T06:05:13;18.97;;;11.13;;
76351;SDS011;65179;47.786;19.138;2023-04-09T06:07:38;17.73;;;11.20;;
76351;SDS011;65179;47.786;19.138;2023-04-09T06:10:04;17.98;;;11.52;;
76351;SDS011;65179;47.786;19.138;2023-04-09T06:12:30;19.00;;;11.37;;
76351;SDS011;65179;47.786;19.138;2023-04-09T06:14:55;18.77;;;10.70;;
76351;SDS011;65179;47.786;19.138;2023-04-09T06:17:21;17.83;;;10.57;;
76351;SDS011;65179;47.786;19.138;2023-04-09T06:19:46;18.37;;;11.17;;
76351;SDS011;65179;47.786;19.138;2023-04-09T06:22:11;19.20;;;11.20;;
76351;SDS011;65179;47.786;19.138;2023-04-09T06:24:37;16.80;;;10.33;;
76351;SDS011;65179;47.786;19.138;2023-04-09T06:27:02;18.37;;;11.18;;
76351;SDS011;65179;47.786;19.138;2023-04-09T06:29:28;19.45;;;10.77;;
76351;SDS011;65179;47.786;19.138;2023-04-09T06:31:53;18.83;;;10.27;;
76351;SDS011;65179;47.786;19.138;2023-04-09T06:34:19;17.10;;;10.40;;
76351;SDS011;65179;47.786;19.138;2023-04-09T06:36:44;18.48;;;10.35;;
76351;SDS011;65179;47.786;19.138;2023-04-09T06:39:10;17.27;;;10.53;;
76351;SDS011;65179;47.786;19.138;2023-04-09T06:41:35;16.17;;;10.13;;
76351;SDS011;65179;47.786;19.138;2023-04-09T06:44:00;17.93;;;10.53;;
76351;SDS011;65179;47.786;19.138;2023-04-09T06:46:26;16.37;;;10.05;;
76351;SDS011;65179;47.786;19.138;2023-04-09T06:48:52;17.13;;;10.43;;
76351;SDS011;65179;47.786;19.138;2023-04-09T06:51:18;18.02;;;11.02;;
76351;SDS011;65179;47.786;19.138;2023-04-09T06:53:43;16.63;;;9.20;;
76351;SDS011;65179;47.786;19.138;2023-04-09T06:56:09;16.73;;;9.93;;
76351;SDS011;65179;47.786;19.138;2023-04-09T06:58:35;18.83;;;10.23;;
76351;SDS011;65179;47.786;19.138;2023-04-09T07:01:00;18.30;;;10.82;;
76351;SDS011;65179;47.786;19.138;2023-04-09T07:03:26;19.37;;;10.93;;
76351;SDS011;65179;47.786;19.138;2023-04-09T07:05:53;15.40;;;9.40;;
76351;SDS011;65179;47.786;19.138;2023-04-09T07:08:19;16.52;;;9.20;;
76351;SDS011;65179;47.786;19.138;2023-04-09T07:10:44;15.23;;;9.37;;
76351;SDS011;65179;47.786;19.138;2023-04-09T07:13:11;15.45;;;9.15;;
76351;SDS011;65179;47.786;19.138;2023-04-09T07:15:37;17.92;;;9.57;;
76351;SDS011;65179;47.786;19.138;2023-04-09T07:18:02;14.40;;;8.55;;
76351;SDS011;65179;47.786;19.138;2023-04-09T07:20:28;15.20;;;8.50;;
76351;SDS011;65179;47.786;19.138;2023-04-09T07:22:53;14.83;;;8.27;;
76351;SDS011;65179;47.786;19.138;2023-04-09T07:25:19;15.18;;;8.73;;
76351;SDS011;65179;47.786;19.138;2023-04-09T07:27:45;14.77;;;8.70;;
76351;SDS011;65179;47.786;19.138;2023-04-09T07:30:11;13.60;;;8.80;;
76351;SDS011;65179;47.786;19.138;2023-04-09T07:32:36;14.57;;;9.13;;
76351;SDS011;65179;47.786;19.138;2023-04-09T07:35:02;15.07;;;8.88;;
76351;SDS011;65179;47.786;19.138;2023-04-09T07:37:29;16.30;;;9.30;;
76351;SDS011;65179;47.786;19.138;2023-04-09T07:39:58;13.50;;;8.13;;
76351;SDS011;65179;47.786;19.138;2023-04-09T07:42:23;14.70;;;8.82;;
76351;SDS011;65179;47.786;19.138;2023-04-09T07:44:49;15.43;;;9.10;;
76351;SDS011;65179;47.786;19.138;2023-04-09T07:47:15;14.25;;;9.40;;
76351;SDS011;65179;47.786;19.138;2023-04-09T07:49:40;15.57;;;8.90;;
76351;SDS011;65179;47.786;19.138;2023-04-09T07:52:06;16.73;;;9.70;;
76351;SDS011;65179;47.786;19.138;2023-04-09T07:54:32;16.90;;;9.73;;
76351;SDS011;65179;47.786;19.138;2023-04-09T07:56:58;16.50;;;9.63;;
76351;SDS011;65179;47.786;19.138;2023-04-09T07:59:23;16.03;;;9.50;;
76351;SDS011;65179;47.786;19.138;2023-04-09T08:01:50;21.92;;;11.27;;
76351;SDS011;65179;47.786;19.138;2023-04-09T08:04:15;16.20;;;9.57;;
76351;SDS011;65179;47.786;19.138;2023-04-09T08:06:41;16.02;;;9.70;;
76351;SDS011;65179;47.786;19.138;2023-04-09T08:09:06;17.33;;;10.40;;
76351;SDS011;65179;47.786;19.138;2023-04-09T08:11:32;18.13;;;10.17;;
76351;SDS011;65179;47.786;19.138;2023-04-09T08:13:57;18.58;;;10.60;;
76351;SDS011;65179;47.786;19.138;2023-04-09T08:16:26;33.28;;;15.07;;
76351;SDS011;65179;47.786;19.138;2023-04-09T08:18:54;19.93;;;11.07;;
76351;SDS011;65179;47.786;19.138;2023-04-09T08:21:20;17.33;;;10.18;;
76351;SDS011;65179;47.786;19.138;2023-04-09T08:23:45;19.93;;;11.10;;
76351;SDS011;65179;47.786;19.138;2023-04-09T08:26:11;30.37;;;15.02;;
76351;SDS011;65179;47.786;19.138;2023-04-09T08:28:36;17.33;;;9.10;;
76351;SDS011;65179;47.786;19.138;2023-04-09T08:31:01;14.53;;;8.80;;
76351;SDS011;65179;47.786;19.138;2023-04-09T08:33:27;15.20;;;8.67;;
76351;SDS011;65179;47.786;19.138;2023-04-09T08:35:53;17.00;;;9.93;;
76351;SDS011;65179;47.786;19.138;2023-04-09T08:38:18;17.00;;;9.73;;
76351;SDS011;65179;47.786;19.138;2023-04-09T08:40:44;18.23;;;9.77;;
76351;SDS011;65179;47.786;19.138;2023-04-09T08:43:09;13.80;;;8.43;;
76351;SDS011;65179;47.786;19.138;2023-04-09T08:45:39;15.18;;;8.52;;
76351;SDS011;65179;47.786;19.138;2023-04-09T08:48:05;15.18;;;9.20;;
76351;SDS011;65179;47.786;19.138;2023-04-09T08:50:33;14.65;;;8.88;;
76351;SDS011;65179;47.786;19.138;2023-04-09T08:53:01;16.03;;;9.00;;
76351;SDS011;65179;47.786;19.138;2023-04-09T08:55:28;14.77;;;8.82;;
76351;SDS011;65179;47.786;19.138;2023-04-09T08:57:55;15.95;;;9.38;;
76351;SDS011;65179;47.786;19.138;2023-04-09T09:00:22;14.55;;;8.43;;
76351;SDS011;65179;47.786;19.138;2023-04-09T09:03:10;13.87;;;7.27;;
76351;SDS011;65179;47.786;19.138;2023-04-09T09:05:40;12.88;;;7.35;;
76351;SDS011;65179;47.786;19.138;2023-04-09T09:08:08;12.70;;;8.13;;
76351;SDS011;65179;47.786;19.138;2023-04-09T09:10:38;16.40;;;8.77;;
76351;SDS011;65179;47.786;19.138;2023-04-09T09:13:26;15.13;;;8.90;;
76351;SDS011;65179;47.786;19.138;2023-04-09T09:15:52;19.10;;;11.85;;
76351;SDS011;65179;47.786;19.138;2023-04-09T09:21:14;15.55;;;9.25;;
76351;SDS011;65179;47.786;19.138;2023-04-09T09:23:41;13.30;;;8.27;;
76351;SDS011;65179;47.786;19.138;2023-04-09T09:26:14;16.40;;;9.57;;
76351;SDS011;65179;47.786;19.138;2023-04-09T09:28:45;13.77;;;8.38;;
76351;SDS011;65179;47.786;19.138;2023-04-09T09:31:15;13.38;;;8.68;;
76351;SDS011;65179;47.786;19.138;2023-04-09T09:33:41;15.07;;;8.57;;
76351;SDS011;65179;47.786;19.138;2023-04-09T09:36:07;12.73;;;7.90;;
76351;SDS011;65179;47.786;19.138;2023-04-09T09:38:33;14.40;;;8.95;;
76351;SDS011;65179;47.786;19.138;2023-04-09T09:41:16;15.95;;;8.13;;
76351;SDS011;65179;47.786;19.138;2023-04-09T09:43:42;14.82;;;8.70;;
76351;SDS011;65179;47.786;19.138;2023-04-09T09:46:08;13.80;;;7.70;;
76351;SDS011;65179;47.786;19.138;2023-04-09T09:48:35;12.85;;;8.15;;
76351;SDS011;65179;47.786;19.138;2023-04-09T09:51:01;13.40;;;8.43;;
76351;SDS011;65179;47.786;19.138;2023-04-09T09:53:29;13.95;;;8.88;;
76351;SDS011;65179;47.786;19.138;2023-04-09T09:55:56;16.40;;;8.57;;
76351;SDS011;65179;47.786;19.138;2023-04-09T09:58:28;14.80;;;8.00;;
76351;SDS011;65179;47.786;19.138;2023-04-09T10:01:00;14.32;;;8.15;;
76351;SDS011;65179;47.786;19.138;2023-04-09T10:03:27;12.88;;;7.78;;
76351;SDS011;65179;47.786;19.138;2023-04-09T10:05:54;14.70;;;8.88;;
76351;SDS011;65179;47.786;19.138;2023-04-09T10:08:21;14.85;;;9.02;;
76351;SDS011;65179;47.786;19.138;2023-04-09T10:10:48;14.77;;;8.13;;
76351;SDS011;65179;47.786;19.138;2023-04-09T10:13:20;13.00;;;7.78;;
76351;SDS011;65179;47.786;19.138;2023-04-09T10:15:56;12.48;;;7.10;;
76351;SDS011;65179;47.786;19.138;2023-04-09T10:18:25;11.68;;;7.18;;
76351;SDS011;65179;47.786;19.138;2023-04-09T10:20:58;12.40;;;7.50;;
76351;SDS011;65179;47.786;19.138;2023-04-09T10:23:35;11.70;;;7.32;;
76351;SDS011;65179;47.786;19.138;2023-04-09T10:26:04;12.55;;;7.35;;
76351;SDS011;65179;47.786;19.138;2023-04-09T10:28:30;13.10;;;7.93;;
76351;SDS011;65179;47.786;19.138;2023-04-09T10:30:56;14.45;;;8.50;;
76351;SDS011;65179;47.786;19.138;2023-04-09T10:33:23;12.45;;;8.02;;
76351;SDS011;65179;47.786;19.138;2023-04-09T10:35:53;13.40;;;7.45;;
76351;SDS011;65179;47.786;19.138;2023-04-09T10:38:36;12.95;;;8.45;;
76351;SDS011;65179;47.786;19.138;2023-04-09T10:41:26;11.80;;;7.57;;
76351;SDS011;65179;47.786;19.138;2023-04-09T10:43:52;12.23;;;7.15;;
76351;SDS011;65179;47.786;19.138;2023-04-09T10:46:28;12.88;;;7.72;;
76351;SDS011;65179;47.786;19.138;2023-04-09T10:51:53;18.57;;;10.57;;
76351;SDS011;65179;47.786;19.138;2023-04-09T10:59:36;11.75;;;7.45;;
76351;SDS011;65179;47.786;19.138;2023-04-09T11:02:34;13.27;;;7.50;;
76351;SDS011;65179;47.786;19.138;2023-04-09T11:07:57;11.88;;;7.03;;
76351;SDS011;65179;47.786;19.138;2023-04-09T11:10:30;12.93;;;7.32;;
76351;SDS011;65179;47.786;19.138;2023-04-09T11:12:56;11.25;;;7.55;;
76351;SDS011;65179;47.786;19.138;2023-04-09T11:15:22;11.73;;;7.17;;
76351;SDS011;65179;47.786;19.138;2023-04-09T11:17:47;12.63;;;7.17;;
76351;SDS011;65179;47.786;19.138;2023-04-09T11:20:21;10.23;;;6.65;;
76351;SDS011;65179;47.786;19.138;2023-04-09T11:22:48;11.43;;;7.47;;
76351;SDS011;65179;47.786;19.138;2023-04-09T11:25:22;11.30;;;7.37;;
76351;SDS011;65179;47.786;19.138;2023-04-09T11:27:52;11.98;;;7.05;;
76351;SDS011;65179;47.786;19.138;2023-04-09T11:30:18;11.00;;;6.57;;
76351;SDS011;65179;47.786;19.138;2023-04-09T11:32:44;11.10;;;6.12;;
76351;SDS011;65179;47.786;19.138;2023-04-09T11:35:11;10.80;;;6.35;;
76351;SDS011;65179;47.786;19.138;2023-04-09T11:37:38;10.38;;;6.55;;
76351;SDS011;65179;47.786;19.138;2023-04-09T11:40:04;9.73;;;6.40;;
76351;SDS011;65179;47.786;19.138;2023-04-09T11:42:30;10.68;;;6.10;;
76351;SDS011;65179;47.786;19.138;2023-04-09T11:44:56;11.55;;;6.85;;
76351;SDS011;65179;47.786;19.138;2023-04-09T11:47:22;11.07;;;7.30;;
76351;SDS011;65179;47.786;19.138;2023-04-09T11:49:48;10.30;;;6.03;;
76351;SDS011;65179;47.786;19.138;2023-04-09T11:52:13;11.63;;;7.23;;
76351;SDS011;65179;47.786;19.138;2023-04-09T11:54:48;11.07;;;6.72;;
76351;SDS011;65179;47.786;19.138;2023-04-09T11:57:14;11.00;;;6.60;;
76351;SDS011;65179;47.786;19.138;2023-04-09T11:59:40;10.50;;;6.95;;
76351;SDS011;65179;47.786;19.138;2023-04-09T12:02:06;11.83;;;6.80;;
76351;SDS011;65179;47.786;19.138;2023-04-09T12:04:32;12.02;;;8.00;;
76351;SDS011;65179;47.786;19.138;2023-04-09T12:06:57;12.47;;;7.00;;
76351;SDS011;65179;47.786;19.138;2023-04-09T12:09:23;10.63;;;6.80;;
76351;SDS011;65179;47.786;19.138;2023-04-09T12:11:49;11.90;;;7.43;;
76351;SDS011;65179;47.786;19.138;2023-04-09T12:14:15;11.67;;;6.70;;
76351;SDS011;65179;47.786;19.138;2023-04-09T12:16:42;10.30;;;6.37;;
76351;SDS011;65179;47.786;19.138;2023-04-09T12:19:12;10.65;;;6.90;;
76351;SDS011;65179;47.786;19.138;2023-04-09T12:21:53;13.62;;;6.62;;
76351;SDS011;65179;47.786;19.138;2023-04-09T12:24:23;11.52;;;7.07;;
76351;SDS011;65179;47.786;19.138;2023-04-09T12:26:49;10.60;;;6.72;;
76351;SDS011;65179;47.786;19.138;2023-04-09T12:29:17;10.63;;;7.03;;
76351;SDS011;65179;47.786;19.138;2023-04-09T12:31:43;10.77;;;6.60;;
76351;SDS011;65179;47.786;19.138;2023-04-09T12:34:09;10.98;;;6.87;;
76351;SDS011;65179;47.786;19.138;2023-04-09T12:36:36;12.02;;;6.82;;
76351;SDS011;65179;47.786;19.138;2023-04-09T12:39:02;10.68;;;7.25;;
76351;SDS011;65179;47.786;19.138;2023-04-09T12:41:28;11.00;;;7.07;;
76351;SDS011;65179;47.786;19.138;2023-04-09T12:43:54;12.15;;;6.97;;
76351;SDS011;65179;47.786;19.138;2023-04-09T12:46:19;11.07;;;6.87;;
76351;SDS011;65179;47.786;19.138;2023-04-09T12:48:45;44.50;;;30.10;;
76351;SDS011;65179;47.786;19.138;2023-04-09T12:51:11;15.57;;;9.25;;
76351;SDS011;65179;47.786;19.138;2023-04-09T12:53:37;17.25;;;9.27;;
76351;SDS011;65179;47.786;19.138;2023-04-09T12:56:03;11.37;;;7.17;;
76351;SDS011;65179;47.786;19.138;2023-04-09T12:58:29;10.48;;;6.20;;
76351;SDS011;65179;47.786;19.138;2023-04-09T13:00:55;11.25;;;6.87;;
76351;SDS011;65179;47.786;19.138;2023-04-09T13:03:21;12.25;;;7.87;;
76351;SDS011;65179;47.786;19.138;2023-04-09T13:05:47;12.60;;;7.23;;
76351;SDS011;65179;47.786;19.138;2023-04-09T13:08:13;11.68;;;6.95;;
76351;SDS011;65179;47.786;19.138;2023-04-09T13:10:39;12.73;;;6.73;;
76351;SDS011;65179;47.786;19.138;2023-04-09T13:13:04;10.45;;;6.82;;
76351;SDS011;65179;47.786;19.138;2023-04-09T13:15:35;11.63;;;7.35;;
76351;SDS011;65179;47.786;19.138;2023-04-09T13:18:01;13.75;;;8.18;;
76351;SDS011;65179;47.786;19.138;2023-04-09T13:20:27;11.00;;;7.10;;
76351;SDS011;65179;47.786;19.138;2023-04-09T13:22:52;12.67;;;6.87;;
76351;SDS011;65179;47.786;19.138;2023-04-09T13:25:18;11.87;;;6.60;;
76351;SDS011;65179;47.786;19.138;2023-04-09T13:27:43;11.40;;;7.12;;
76351;SDS011;65179;47.786;19.138;2023-04-09T13:30:09;10.43;;;6.40;;
76351;SDS011;65179;47.786;19.138;2023-04-09T13:32:35;10.90;;;6.60;;
76351;SDS011;65179;47.786;19.138;2023-04-09T13:35:00;10.70;;;6.63;;
76351;SDS011;65179;47.786;19.138;2023-04-09T13:37:25;9.73;;;6.03;;
76351;SDS011;65179;47.786;19.138;2023-04-09T13:39:51;10.67;;;6.47;;
76351;SDS011;65179;47.786;19.138;2023-04-09T13:42:16;9.63;;;6.43;;
76351;SDS011;65179;47.786;19.138;2023-04-09T13:44:42;10.52;;;6.43;;
76351;SDS011;65179;47.786;19.138;2023-04-09T13:47:11;10.13;;;6.35;;
76351;SDS011;65179;47.786;19.138;2023-04-09T13:49:37;11.65;;;6.93;;
76351;SDS011;65179;47.786;19.138;2023-04-09T13:52:04;10.18;;;6.32;;
76351;SDS011;65179;47.786;19.138;2023-04-09T13:54:30;10.88;;;6.65;;
76351;SDS011;65179;47.786;19.138;2023-04-09T13:56:56;10.00;;;6.45;;
76351;SDS011;65179;47.786;19.138;2023-04-09T13:59:21;10.43;;;6.77;;
76351;SDS011;65179;47.786;19.138;2023-04-09T14:01:46;10.40;;;7.27;;
76351;SDS011;65179;47.786;19.138;2023-04-09T14:04:12;12.52;;;7.65;;
76351;SDS011;65179;47.786;19.138;2023-04-09T14:06:37;12.03;;;6.60;;
76351;SDS011;65179;47.786;19.138;2023-04-09T14:09:03;11.57;;;7.00;;
76351;SDS011;65179;47.786;19.138;2023-04-09T14:11:28;10.60;;;6.47;;
76351;SDS011;65179;47.786;19.138;2023-04-09T14:13:54;11.63;;;6.80;;
76351;SDS011;65179;47.786;19.138;2023-04-09T14:16:20;10.30;;;6.37;;
76351;SDS011;65179;47.786;19.138;2023-04-09T14:18:45;9.88;;;6.12;;
76351;SDS011;65179;47.786;19.138;2023-04-09T14:21:11;11.12;;;6.70;;
76351;SDS011;65179;47.786;19.138;2023-04-09T14:23:37;10.27;;;6.30;;
76351;SDS011;65179;47.786;19.138;2023-04-09T14:26:04;11.73;;;6.95;;
76351;SDS011;65179;47.786;19.138;2023-04-09T14:28:30;10.13;;;6.43;;
76351;SDS011;65179;47.786;19.138;2023-04-09T14:30:56;10.97;;;6.80;;
76351;SDS011;65179;47.786;19.138;2023-04-09T14:33:23;11.12;;;6.60;;
76351;SDS011;65179;47.786;19.138;2023-04-09T14:35:49;12.18;;;7.45;;
76351;SDS011;65179;47.786;19.138;2023-04-09T14:38:14;14.33;;;9.77;;
76351;SDS011;65179;47.786;19.138;2023-04-09T14:40:41;12.82;;;8.82;;
76351;SDS011;65179;47.786;19.138;2023-04-09T14:43:07;11.48;;;6.97;;